createdAt,value
2018-04-30T00:00:12.894Z,3.77
2018-04-30T00:02:39.176Z,3.53
2018-04-30T00:05:05.528Z,3.83
2018-04-30T00:07:32.561Z,2.27
2018-04-30T00:09:58.875Z,2.50
2018-04-30T00:12:25.180Z,2.57
2018-04-30T00:14:51.475Z,4.07
2018-04-30T00:17:17.773Z,3.27
2018-04-30T00:19:44.109Z,4.30
2018-04-30T00:22:10.401Z,2.57
2018-04-30T00:24:36.718Z,1.87
2018-04-30T00:27:03.006Z,2.53
2018-04-30T00:29:29.305Z,2.27
2018-04-30T00:31:55.610Z,1.63
2018-04-30T00:34:21.892Z,1.80
2018-04-30T00:36:48.185Z,2.97
2018-04-30T00:39:14.483Z,3.07
2018-04-30T00:41:40.779Z,2.20
2018-04-30T00:44:07.060Z,3.70
2018-04-30T00:46:33.331Z,5.23
2018-04-30T00:48:59.622Z,2.03
2018-04-30T00:51:25.911Z,1.53
2018-04-30T00:53:52.963Z,1.27
2018-04-30T00:56:19.971Z,1.47
2018-04-30T00:58:46.277Z,1.50
2018-04-30T01:01:12.590Z,0.60
2018-04-30T01:03:39.638Z,1.03
2018-04-30T01:06:05.973Z,1.97
2018-04-30T01:08:32.270Z,3.13
2018-04-30T01:10:58.588Z,0.83
2018-04-30T01:13:24.924Z,0.67
2018-04-30T01:15:51.230Z,0.80
2018-04-30T01:18:17.541Z,0.70
2018-04-30T01:20:43.816Z,0.70
2018-04-30T01:23:10.109Z,6.10
2018-04-30T01:25:36.407Z,1.13
2018-04-30T01:28:03.492Z,0.60
2018-04-30T01:30:29.795Z,1.47
2018-04-30T01:32:56.114Z,1.00
2018-04-30T01:35:23.167Z,0.83
2018-04-30T01:37:50.212Z,1.53
2018-04-30T01:40:17.256Z,0.70
2018-04-30T01:42:44.303Z,5.30
2018-04-30T01:45:11.340Z,1.00
2018-04-30T01:47:38.388Z,0.87
2018-04-30T01:50:05.442Z,0.80
2018-04-30T01:52:32.493Z,0.73
2018-04-30T01:54:59.545Z,0.77
2018-04-30T01:57:26.635Z,0.57
2018-04-30T01:59:52.953Z,0.47
2018-04-30T02:02:19.275Z,0.50
2018-04-30T02:04:45.579Z,0.83
2018-04-30T02:07:12.603Z,1.33
2018-04-30T02:09:38.900Z,0.30
2018-04-30T02:12:05.196Z,0.50
2018-04-30T02:14:32.218Z,0.40
2018-04-30T02:16:58.515Z,2.20
2018-04-30T02:19:24.800Z,0.20
2018-04-30T02:21:51.851Z,0.80
2018-04-30T02:24:18.921Z,0.63
2018-04-30T02:26:45.240Z,0.43
2018-04-30T02:29:11.547Z,0.40
2018-04-30T02:31:38.588Z,1.33
2018-04-30T02:34:04.940Z,0.20
2018-04-30T02:36:31.951Z,0.10
2018-04-30T02:38:58.262Z,1.00
2018-04-30T02:41:24.577Z,0.10
2018-04-30T02:43:50.887Z,0.30
2018-04-30T02:46:17.931Z,0.50
2018-04-30T02:48:44.955Z,0.40
2018-04-30T02:51:11.260Z,0.40
2018-04-30T02:53:37.564Z,0.37
2018-04-30T02:56:03.845Z,0.67
2018-04-30T02:58:30.179Z,0.50
2018-04-30T03:00:56.485Z,0.20
2018-04-30T03:03:22.796Z,0.53
2018-04-30T03:05:49.112Z,0.23
2018-04-30T03:08:15.416Z,0.20
2018-04-30T03:10:41.797Z,1.50
2018-04-30T03:13:08.187Z,0.10
2018-04-30T03:15:35.297Z,1.60
2018-04-30T03:18:01.601Z,0.50
2018-04-30T03:20:27.916Z,0.60
2018-04-30T03:22:54.251Z,0.37
2018-04-30T03:25:20.580Z,0.20
2018-04-30T03:27:46.884Z,3.00
2018-04-30T03:30:13.183Z,2.73
2018-04-30T03:32:39.500Z,0.20
2018-04-30T03:35:05.802Z,0.83
2018-04-30T03:37:32.083Z,0.70
2018-04-30T03:39:58.397Z,0.30
2018-04-30T03:42:24.701Z,0.30
2018-04-30T03:44:50.999Z,0.70
2018-04-30T03:47:18.074Z,0.27
2018-04-30T03:49:44.420Z,0.50
2018-04-30T03:52:10.673Z,0.50
2018-04-30T03:54:37.012Z,0.60
2018-04-30T03:57:03.324Z,0.70
2018-04-30T03:59:29.595Z,0.60
2018-04-30T04:02:08.677Z,0.97
2018-04-30T04:04:47.015Z,0.80
2018-04-30T04:07:13.316Z,0.73
2018-04-30T04:09:39.604Z,0.80
2018-04-30T04:12:06.631Z,0.30
2018-04-30T04:14:32.916Z,2.07
2018-04-30T04:16:59.196Z,0.67
2018-04-30T04:19:25.489Z,0.50
2018-04-30T04:21:51.791Z,1.00
2018-04-30T04:24:18.130Z,0.37
2018-04-30T04:26:44.414Z,0.60
2018-04-30T04:29:10.800Z,0.80
2018-04-30T04:31:37.096Z,0.33
2018-04-30T04:34:04.174Z,0.40
2018-04-30T04:36:30.473Z,0.30
2018-04-30T04:38:58.581Z,1.03
2018-04-30T04:41:24.910Z,0.70
2018-04-30T04:43:52.265Z,0.13
2018-04-30T04:46:18.548Z,0.40
2018-04-30T04:48:44.860Z,1.33
2018-04-30T04:51:11.186Z,0.50
2018-04-30T04:53:37.472Z,0.30
2018-04-30T04:56:03.823Z,0.37
2018-04-30T04:58:30.808Z,0.53
2018-04-30T05:00:57.128Z,0.40
2018-04-30T05:03:23.412Z,0.20
2018-04-30T05:05:49.712Z,0.20
2018-04-30T05:08:16.013Z,0.40
2018-04-30T05:10:42.302Z,0.40
2018-04-30T05:13:08.662Z,0.37
2018-04-30T05:15:34.963Z,2.00
2018-04-30T05:18:01.309Z,1.00
2018-04-30T05:20:27.629Z,0.20
2018-04-30T05:22:53.911Z,1.03
2018-04-30T05:25:20.315Z,0.30
2018-04-30T05:27:46.948Z,0.50
2018-04-30T05:30:13.247Z,0.87
2018-04-30T05:32:39.536Z,0.33
2018-04-30T05:35:05.991Z,0.40
2018-04-30T05:37:33.031Z,0.30
2018-04-30T05:39:59.425Z,0.30
2018-04-30T05:42:25.712Z,1.33
2018-04-30T05:44:52.777Z,0.93
2018-04-30T05:47:19.075Z,1.40
2018-04-30T05:49:45.403Z,1.20
2018-04-30T05:52:11.695Z,0.70
2018-04-30T05:54:38.021Z,0.87
2018-04-30T05:57:04.324Z,0.30
2018-04-30T05:59:31.363Z,1.73
2018-04-30T06:02:05.228Z,0.60
2018-04-30T06:04:31.512Z,0.60
2018-04-30T06:06:57.853Z,0.97
2018-04-30T06:09:24.193Z,0.40
2018-04-30T06:11:50.501Z,0.80
2018-04-30T06:14:17.613Z,0.43
2018-04-30T06:16:43.939Z,0.90
2018-04-30T06:19:10.327Z,0.50
2018-04-30T06:21:36.627Z,0.40
2018-04-30T06:24:02.912Z,0.50
2018-04-30T06:26:30.057Z,0.70
2018-04-30T06:28:56.384Z,0.60
2018-04-30T06:31:22.712Z,0.80
2018-04-30T06:33:49.030Z,0.80
2018-04-30T06:36:15.355Z,0.30
2018-04-30T06:38:42.399Z,0.40
2018-04-30T06:41:09.443Z,0.40
2018-04-30T06:43:36.460Z,0.70
2018-04-30T06:46:02.753Z,0.80
2018-04-30T06:48:29.068Z,0.60
2018-04-30T06:50:55.367Z,3.53
2018-04-30T06:53:21.740Z,17.63
2018-04-30T06:55:48.068Z,1.33
2018-04-30T06:58:14.385Z,0.80
2018-04-30T07:00:41.759Z,1.13
2018-04-30T07:03:08.044Z,0.50
2018-04-30T07:05:34.411Z,0.60
2018-04-30T07:08:00.742Z,0.73
2018-04-30T07:10:27.764Z,0.60
2018-04-30T07:12:54.859Z,1.15
2018-04-30T07:15:21.203Z,0.60
2018-04-30T07:17:47.512Z,0.60
2018-04-30T07:20:13.844Z,0.75
2018-04-30T07:22:40.137Z,0.37
2018-04-30T07:25:07.177Z,0.90
2018-04-30T07:27:33.581Z,0.40
2018-04-30T07:29:59.788Z,0.88
2018-04-30T07:32:26.096Z,0.60
2018-04-30T07:34:52.405Z,1.25
2018-04-30T07:37:19.447Z,1.15
2018-04-30T07:39:45.795Z,0.45
2018-04-30T07:42:12.863Z,0.30
2018-04-30T07:44:39.179Z,0.62
2018-04-30T07:47:06.199Z,0.47
2018-04-30T07:49:32.505Z,0.57
2018-04-30T07:51:58.799Z,0.43
2018-04-30T07:54:25.079Z,0.35
2018-04-30T07:56:51.404Z,0.30
2018-04-30T07:59:17.721Z,1.10
2018-04-30T08:01:44.027Z,1.30
2018-04-30T08:04:10.388Z,1.57
2018-04-30T08:06:36.714Z,0.60
2018-04-30T08:09:03.914Z,0.57
2018-04-30T08:11:30.191Z,1.23
2018-04-30T08:13:56.525Z,0.80
2018-04-30T08:16:22.890Z,2.73
2018-04-30T08:18:49.955Z,1.63
2018-04-30T08:21:16.996Z,1.30
2018-04-30T08:23:44.009Z,0.40
2018-04-30T08:26:10.312Z,1.37
2018-04-30T08:28:36.623Z,0.70
2018-04-30T08:31:02.912Z,2.60
2018-04-30T08:33:29.207Z,3.63
2018-04-30T08:35:55.522Z,5.83
2018-04-30T08:38:21.806Z,4.20
2018-04-30T08:40:48.230Z,8.43
2018-04-30T08:43:14.539Z,7.43
2018-04-30T08:45:40.834Z,5.20
2018-04-30T08:48:07.881Z,10.97
2018-04-30T08:50:34.203Z,4.83
2018-04-30T08:53:01.289Z,3.67
2018-04-30T08:55:27.588Z,1.80
2018-04-30T08:57:54.617Z,2.73
2018-04-30T09:00:21.073Z,1.80
2018-04-30T09:05:20.279Z,1.70
2018-04-30T09:07:47.362Z,1.43
2018-04-30T09:10:13.696Z,1.40
2018-04-30T09:12:40.008Z,0.70
2018-04-30T09:15:06.711Z,0.47
2018-04-30T09:17:33.012Z,0.40
2018-04-30T09:19:59.331Z,0.40
2018-04-30T09:22:25.625Z,0.30
2018-04-30T09:24:52.668Z,0.40
2018-04-30T09:27:19.703Z,0.60
2018-04-30T09:29:45.976Z,0.30
2018-04-30T09:32:12.307Z,0.40
2018-04-30T09:34:38.603Z,0.50
2018-04-30T09:37:05.647Z,0.30
2018-04-30T09:39:31.994Z,0.30
2018-04-30T09:41:59.042Z,0.70
2018-04-30T09:44:26.089Z,0.30
2018-04-30T09:46:53.095Z,0.93
2018-04-30T09:49:19.416Z,0.40
2018-04-30T09:51:45.751Z,1.37
2018-04-30T09:54:12.041Z,0.30
2018-04-30T09:56:38.339Z,0.30
2018-04-30T09:59:04.619Z,0.97
2018-04-30T10:01:30.928Z,0.37
2018-04-30T10:03:57.247Z,0.83
2018-04-30T10:06:24.300Z,0.47
2018-04-30T10:08:51.335Z,0.30
2018-04-30T10:11:18.403Z,0.73
2018-04-30T10:13:45.440Z,0.30
2018-04-30T10:16:12.455Z,0.40
2018-04-30T10:18:38.760Z,0.30
2018-04-30T10:21:05.080Z,0.40
2018-04-30T10:23:31.467Z,0.40
2018-04-30T10:25:57.737Z,2.53
2018-04-30T10:28:24.023Z,0.30
2018-04-30T10:30:50.307Z,0.30
2018-04-30T10:33:16.612Z,0.30
2018-04-30T10:35:43.656Z,0.50
2018-04-30T10:38:10.723Z,0.47
2018-04-30T10:40:37.017Z,0.97
2018-04-30T10:43:03.355Z,0.30
2018-04-30T10:45:30.386Z,0.90
2018-04-30T10:47:56.733Z,0.40
2018-04-30T10:50:23.842Z,0.53
2018-04-30T10:52:50.818Z,0.60
2018-04-30T10:55:17.143Z,0.97
2018-04-30T10:57:43.603Z,1.40
2018-04-30T11:00:10.695Z,1.03
2018-04-30T11:02:37.045Z,0.50
2018-04-30T11:05:03.327Z,0.43
2018-04-30T11:07:29.651Z,0.90
2018-04-30T11:09:56.691Z,0.43
2018-04-30T11:12:25.138Z,0.43
2018-04-30T11:14:51.428Z,1.10
2018-04-30T11:17:17.738Z,2.37
2018-04-30T11:19:44.812Z,1.13
2018-04-30T11:22:11.144Z,1.27
2018-04-30T11:24:37.462Z,0.53
2018-04-30T11:27:03.743Z,0.97
2018-04-30T11:29:30.044Z,1.80
2018-04-30T11:31:56.352Z,0.70
2018-04-30T11:34:22.917Z,0.67
2018-04-30T11:36:50.246Z,0.77
2018-04-30T11:39:17.292Z,0.77
2018-04-30T11:41:43.671Z,0.93
2018-04-30T11:44:10.000Z,0.90
2018-04-30T11:46:36.316Z,2.00
2018-04-30T11:49:03.499Z,1.43
2018-04-30T11:51:29.876Z,0.40
2018-04-30T11:53:56.190Z,1.40
2018-04-30T11:56:22.492Z,0.40
2018-04-30T11:58:49.619Z,0.30
2018-04-30T12:01:15.951Z,0.33
2018-04-30T12:03:42.267Z,0.50
2018-04-30T12:06:08.579Z,0.30
2018-04-30T12:08:34.887Z,1.17
2018-04-30T12:11:01.224Z,0.40
2018-04-30T12:13:27.548Z,1.40
2018-04-30T12:15:53.851Z,0.50
2018-04-30T12:18:20.209Z,1.17
2018-04-30T12:20:46.522Z,0.30
2018-04-30T12:23:13.641Z,0.67
2018-04-30T12:25:39.976Z,0.40
2018-04-30T12:28:06.303Z,1.17
2018-04-30T12:30:32.635Z,0.20
2018-04-30T12:32:58.960Z,1.37
2018-04-30T12:35:25.288Z,0.20
2018-04-30T12:37:51.647Z,2.00
2018-04-30T12:40:17.959Z,0.30
2018-04-30T12:42:44.279Z,1.13
2018-04-30T12:45:10.598Z,0.30
2018-04-30T12:47:36.916Z,0.70
2018-04-30T12:50:03.252Z,0.40
2018-04-30T12:52:29.568Z,0.40
2018-04-30T12:54:55.901Z,0.93
2018-04-30T12:57:23.220Z,0.90
2018-04-30T12:59:49.564Z,0.30
2018-04-30T13:05:09.336Z,0.50
2018-04-30T13:07:35.639Z,0.40
2018-04-30T13:10:02.147Z,0.50
2018-04-30T13:12:28.523Z,0.33
2018-04-30T13:14:54.863Z,0.40
2018-04-30T13:17:21.198Z,0.93
2018-04-30T13:19:47.536Z,0.83
2018-04-30T13:22:13.947Z,0.97
2018-04-30T13:24:41.102Z,0.47
2018-04-30T13:27:07.385Z,0.50
2018-04-30T13:29:34.452Z,0.70
2018-04-30T13:32:00.789Z,1.00
2018-04-30T13:34:27.787Z,1.17
2018-04-30T13:36:54.120Z,0.60
2018-04-30T13:39:20.432Z,3.67
2018-04-30T13:41:46.879Z,0.30
2018-04-30T13:44:13.251Z,1.60
2018-04-30T13:46:39.653Z,0.40
2018-04-30T13:49:06.726Z,0.20
2018-04-30T13:51:33.787Z,0.30
2018-04-30T13:54:00.164Z,0.30
2018-04-30T13:56:26.489Z,1.60
2018-04-30T13:58:52.809Z,0.63
2018-04-30T14:01:19.142Z,0.30
2018-04-30T14:03:45.596Z,0.57
2018-04-30T14:06:12.135Z,0.37
2018-04-30T14:08:39.199Z,0.43
2018-04-30T14:11:06.253Z,0.93
2018-04-30T14:13:33.285Z,0.30
2018-04-30T14:15:59.701Z,0.40
2018-04-30T14:18:26.065Z,0.27
2018-04-30T14:20:53.150Z,1.57
2018-04-30T14:23:19.480Z,0.40
2018-04-30T14:25:45.763Z,4.10
2018-04-30T14:28:12.035Z,0.67
2018-04-30T14:30:38.344Z,0.40
2018-04-30T14:33:04.734Z,0.40
2018-04-30T14:35:31.043Z,0.63
2018-04-30T14:37:57.343Z,0.20
2018-04-30T14:40:23.644Z,0.20
2018-04-30T14:42:50.021Z,0.50
2018-04-30T14:45:16.313Z,0.93
2018-04-30T14:47:43.435Z,0.40
2018-04-30T14:50:09.836Z,1.70
2018-04-30T14:52:36.123Z,0.40
2018-04-30T14:55:02.547Z,0.40
2018-04-30T14:57:28.811Z,0.23
2018-04-30T14:59:55.859Z,0.93
2018-04-30T15:02:22.160Z,0.33
2018-04-30T15:04:48.436Z,0.20
2018-04-30T15:07:14.753Z,0.50
2018-04-30T15:09:41.108Z,0.40
2018-04-30T15:12:07.410Z,0.20
2018-04-30T15:14:33.751Z,0.37
2018-04-30T15:17:00.113Z,0.37
2018-04-30T15:19:26.477Z,1.73
2018-04-30T15:21:52.724Z,0.37
2018-04-30T15:24:19.744Z,0.40
2018-04-30T15:26:46.047Z,1.70
2018-04-30T15:29:12.367Z,0.20
2018-04-30T15:31:38.655Z,0.20
2018-04-30T15:34:05.712Z,0.37
2018-04-30T15:36:32.733Z,0.47
2018-04-30T15:38:59.025Z,0.30
2018-04-30T15:41:25.303Z,0.43
2018-04-30T15:43:51.592Z,0.30
2018-04-30T15:46:17.879Z,1.63
2018-04-30T15:48:44.939Z,0.20
2018-04-30T15:51:11.191Z,0.20
2018-04-30T15:53:37.517Z,0.40
2018-04-30T15:56:03.889Z,0.30
2018-04-30T15:58:30.164Z,0.30
2018-04-30T16:00:56.489Z,0.30
2018-04-30T16:03:24.099Z,0.87
2018-04-30T16:05:50.378Z,0.47
2018-04-30T16:08:17.411Z,0.30
2018-04-30T16:10:44.654Z,1.03
2018-04-30T16:13:10.974Z,1.17
2018-04-30T16:15:37.381Z,1.77
2018-04-30T16:18:03.679Z,0.20
2018-04-30T16:20:30.707Z,0.60
2018-04-30T16:22:57.803Z,0.27
2018-04-30T16:25:24.104Z,0.33
2018-04-30T16:27:51.180Z,1.60
2018-04-30T16:30:17.552Z,0.70
2018-04-30T16:32:43.859Z,0.53
2018-04-30T16:35:11.180Z,0.67
2018-04-30T16:37:37.595Z,2.10
2018-04-30T16:40:04.706Z,0.30
2018-04-30T16:42:31.112Z,0.40
2018-04-30T16:44:57.403Z,0.83
2018-04-30T16:47:25.105Z,0.93
2018-04-30T16:49:51.404Z,0.43
2018-04-30T16:52:18.456Z,0.47
2018-04-30T16:54:45.660Z,0.70
2018-04-30T16:57:11.980Z,0.30
2018-04-30T16:59:38.271Z,0.67
2018-04-30T17:02:05.402Z,0.30
2018-04-30T17:04:32.721Z,0.37
2018-04-30T17:06:59.116Z,0.60
2018-04-30T17:09:25.419Z,0.30
2018-04-30T17:11:52.476Z,0.30
2018-04-30T17:14:19.585Z,0.20
2018-04-30T17:16:46.097Z,0.30
2018-04-30T17:19:12.540Z,0.90
2018-04-30T17:21:39.096Z,0.50
2018-04-30T17:24:05.537Z,2.77
2018-04-30T17:26:32.035Z,3.23
2018-04-30T17:28:58.444Z,3.50
2018-04-30T17:31:24.929Z,29.57
2018-04-30T17:33:52.136Z,43.30
2018-04-30T17:36:18.635Z,29.60
2018-04-30T17:38:45.864Z,24.73
2018-04-30T17:41:13.125Z,21.30
2018-04-30T17:43:39.512Z,13.00
2018-04-30T17:46:05.931Z,7.10
2018-04-30T17:48:32.989Z,4.63
2018-04-30T17:50:59.308Z,2.33
2018-04-30T17:53:26.367Z,1.23
2018-04-30T17:55:52.910Z,0.43
2018-04-30T17:58:19.222Z,0.50
2018-04-30T18:00:46.244Z,0.30
2018-04-30T18:03:12.555Z,0.30
2018-04-30T18:08:11.897Z,0.47
2018-04-30T18:10:38.191Z,0.20
2018-04-30T18:13:04.612Z,0.23
2018-04-30T18:15:31.019Z,0.37
2018-04-30T18:17:58.098Z,1.33
2018-04-30T18:20:24.426Z,0.20
2018-04-30T18:22:50.761Z,0.40
2018-04-30T18:25:17.089Z,0.67
2018-04-30T18:27:43.417Z,0.93
2018-04-30T18:30:09.726Z,0.70
2018-04-30T18:32:36.048Z,13.83
2018-04-30T18:35:03.080Z,20.50
2018-04-30T18:37:30.152Z,14.03
2018-04-30T18:39:56.460Z,9.90
2018-04-30T18:42:23.468Z,4.07
2018-04-30T18:44:49.755Z,3.27
2018-04-30T18:47:16.043Z,1.53
2018-04-30T18:49:42.332Z,1.60
2018-04-30T18:52:08.615Z,0.80
2018-04-30T18:54:34.905Z,0.50
2018-04-30T18:57:01.195Z,0.37
2018-04-30T18:59:28.308Z,0.73
2018-04-30T19:01:55.148Z,0.37
2018-04-30T19:04:21.473Z,0.70
2018-04-30T19:06:47.766Z,0.20
2018-04-30T19:09:14.081Z,0.87
2018-04-30T19:11:41.128Z,0.20
2018-04-30T19:14:08.163Z,0.77
2018-04-30T19:16:34.437Z,0.97
2018-04-30T19:19:01.367Z,0.40
2018-04-30T19:21:27.662Z,0.40
2018-04-30T19:23:54.070Z,1.03
2018-04-30T19:26:20.516Z,0.50
2018-04-30T19:28:46.911Z,1.23
2018-04-30T19:31:13.214Z,0.50
2018-04-30T19:33:41.329Z,0.40
2018-04-30T19:36:07.638Z,0.40
2018-04-30T19:38:33.943Z,0.30
2018-04-30T19:41:00.983Z,0.50
2018-04-30T19:43:27.271Z,0.20
2018-04-30T19:45:53.591Z,0.50
2018-04-30T19:48:20.083Z,0.47
2018-04-30T19:50:47.188Z,0.90
2018-04-30T19:53:13.644Z,0.53
2018-04-30T19:55:39.931Z,0.50
2018-04-30T19:58:06.244Z,0.50
2018-04-30T20:00:33.276Z,0.30
2018-04-30T20:02:59.579Z,0.30
2018-04-30T20:05:25.887Z,0.40
2018-04-30T20:07:52.194Z,0.40
2018-04-30T20:10:18.479Z,0.53
2018-04-30T20:12:44.770Z,0.30
2018-04-30T20:15:11.087Z,0.20
2018-04-30T20:17:37.368Z,0.40
2018-04-30T20:20:03.680Z,0.83
2018-04-30T20:22:29.989Z,1.10
2018-04-30T20:24:56.270Z,0.70
2018-04-30T20:27:22.559Z,2.53
2018-04-30T20:29:48.868Z,0.70
2018-04-30T20:32:15.138Z,0.87
2018-04-30T20:34:41.501Z,1.33
2018-04-30T20:37:07.787Z,0.93
2018-04-30T20:39:34.101Z,0.40
2018-04-30T20:42:00.449Z,0.70
2018-04-30T20:44:26.829Z,3.57
2018-04-30T20:46:53.413Z,0.60
2018-04-30T20:49:19.749Z,1.07
2018-04-30T20:51:46.069Z,0.30
2018-04-30T20:54:12.410Z,0.30
2018-04-30T20:56:38.717Z,0.20
2018-04-30T20:59:05.003Z,0.30
2018-04-30T21:01:31.314Z,0.27
2018-04-30T21:03:57.633Z,0.20
2018-04-30T21:06:23.987Z,0.27
2018-04-30T21:09:02.367Z,0.50
2018-04-30T21:11:28.989Z,1.03
2018-04-30T21:13:55.275Z,0.23
2018-04-30T21:16:21.636Z,0.37
2018-04-30T21:18:48.722Z,0.33
2018-04-30T21:21:15.067Z,0.40
2018-04-30T21:23:41.365Z,0.37
2018-04-30T21:26:07.745Z,0.90
2018-04-30T21:28:34.134Z,0.67
2018-04-30T21:31:00.557Z,0.43
2018-04-30T21:33:27.761Z,0.73
2018-04-30T21:35:54.555Z,0.20
2018-04-30T21:38:21.292Z,0.60
2018-04-30T21:40:47.713Z,0.70
2018-04-30T21:43:14.739Z,0.33
2018-04-30T21:45:41.224Z,0.50
2018-04-30T21:48:07.516Z,0.27
2018-04-30T21:50:34.553Z,0.20
2018-04-30T21:53:00.843Z,0.37
2018-04-30T21:55:27.146Z,0.47
2018-04-30T21:57:54.317Z,0.30
2018-04-30T22:00:26.726Z,1.30
2018-04-30T22:02:53.817Z,0.13
2018-04-30T22:05:20.227Z,0.20
2018-04-30T22:07:46.707Z,1.00
2018-04-30T22:10:13.012Z,0.70
2018-04-30T22:12:40.075Z,0.20
2018-04-30T22:15:06.428Z,0.40
2018-04-30T22:17:32.748Z,0.57
2018-04-30T22:19:59.135Z,0.30
2018-04-30T22:22:26.187Z,0.20
2018-04-30T22:24:53.244Z,0.30
2018-04-30T22:27:20.363Z,0.17
2018-04-30T22:29:46.633Z,0.93
2018-04-30T22:32:13.675Z,0.40
2018-04-30T22:34:40.817Z,0.40
2018-04-30T22:37:07.849Z,0.40
2018-04-30T22:39:34.219Z,0.50
2018-04-30T22:42:00.756Z,0.30
2018-04-30T22:44:27.070Z,0.20
2018-04-30T22:46:54.176Z,0.30
2018-04-30T22:49:20.479Z,0.40
2018-04-30T22:51:46.780Z,0.20
2018-04-30T22:54:13.825Z,1.00
2018-04-30T22:56:40.993Z,0.13
2018-04-30T22:59:07.330Z,0.20
2018-04-30T23:01:33.641Z,0.70
2018-04-30T23:04:00.725Z,0.27
2018-04-30T23:06:27.076Z,0.27
2018-04-30T23:08:53.503Z,0.10
2018-04-30T23:11:19.788Z,0.30
2018-04-30T23:13:47.792Z,0.23
2018-04-30T23:16:14.117Z,1.23
2018-04-30T23:18:40.441Z,0.20
2018-04-30T23:21:06.814Z,0.40
2018-04-30T23:23:33.124Z,0.30
2018-04-30T23:25:59.437Z,0.30
2018-04-30T23:28:25.732Z,0.83
2018-04-30T23:30:52.764Z,0.37
2018-04-30T23:33:19.055Z,0.20
2018-04-30T23:35:46.342Z,0.10
2018-04-30T23:38:12.666Z,0.27
2018-04-30T23:40:39.080Z,0.20
2018-04-30T23:43:05.392Z,0.20
2018-04-30T23:45:31.714Z,0.50
2018-04-30T23:47:58.017Z,0.40
2018-04-30T23:50:24.390Z,0.30
2018-04-30T23:52:50.706Z,0.20
2018-04-30T23:55:17.015Z,0.30
2018-04-30T23:57:44.124Z,0.50
